sensor_id;sensor_type;location;lat;lon;timestamp;P1;durP1;ratioP1;P2;durP2;ratioP2
72676;SDS011;60755;51.374;10.662;2023-07-24T00:00:08;1.98;;;1.80;;
72676;SDS011;60755;51.374;10.662;2023-07-24T00:02:37;1.65;;;1.65;;
72676;SDS011;60755;51.374;10.662;2023-07-24T00:05:04;1.85;;;1.70;;
72676;SDS011;60755;51.374;10.662;2023-07-24T00:07:32;1.77;;;1.77;;
72676;SDS011;60755;51.374;10.662;2023-07-24T00:09:59;1.90;;;1.80;;
72676;SDS011;60755;51.374;10.662;2023-07-24T00:12:25;1.67;;;1.60;;
72676;SDS011;60755;51.374;10.662;2023-07-24T00:14:53;2.13;;;1.73;;
72676;SDS011;60755;51.374;10.662;2023-07-24T00:17:19;1.80;;;1.70;;
72676;SDS011;60755;51.374;10.662;2023-07-24T00:19:48;1.80;;;1.67;;
72676;SDS011;60755;51.374;10.662;2023-07-24T00:22:15;1.88;;;1.73;;
72676;SDS011;60755;51.374;10.662;2023-07-24T00:24:42;2.15;;;1.50;;
72676;SDS011;60755;51.374;10.662;2023-07-24T00:27:09;3.17;;;1.95;;
72676;SDS011;60755;51.374;10.662;2023-07-24T00:29:36;1.73;;;1.63;;
72676;SDS011;60755;51.374;10.662;2023-07-24T00:32:04;1.70;;;1.70;;
72676;SDS011;60755;51.374;10.662;2023-07-24T00:34:32;1.90;;;1.90;;
72676;SDS011;60755;51.374;10.662;2023-07-24T00:37:00;1.80;;;1.80;;
72676;SDS011;60755;51.374;10.662;2023-07-24T00:39:27;1.80;;;1.70;;
72676;SDS011;60755;51.374;10.662;2023-07-24T00:41:56;2.03;;;1.85;;
72676;SDS011;60755;51.374;10.662;2023-07-24T00:44:23;1.58;;;1.58;;
72676;SDS011;60755;51.374;10.662;2023-07-24T00:46:50;1.80;;;1.75;;
72676;SDS011;60755;51.374;10.662;2023-07-24T00:49:19;1.90;;;1.90;;
72676;SDS011;60755;51.374;10.662;2023-07-24T00:51:47;2.03;;;1.92;;
72676;SDS011;60755;51.374;10.662;2023-07-24T00:54:16;1.90;;;1.80;;
72676;SDS011;60755;51.374;10.662;2023-07-24T00:56:45;1.92;;;1.70;;
72676;SDS011;60755;51.374;10.662;2023-07-24T00:59:14;1.52;;;1.52;;
72676;SDS011;60755;51.374;10.662;2023-07-24T01:01:42;1.60;;;1.60;;
72676;SDS011;60755;51.374;10.662;2023-07-24T01:04:09;1.80;;;1.80;;
72676;SDS011;60755;51.374;10.662;2023-07-24T01:06:36;1.50;;;1.50;;
72676;SDS011;60755;51.374;10.662;2023-07-24T01:09:03;3.80;;;1.80;;
72676;SDS011;60755;51.374;10.662;2023-07-24T01:11:33;2.33;;;1.85;;
72676;SDS011;60755;51.374;10.662;2023-07-24T01:14:04;1.73;;;1.63;;
72676;SDS011;60755;51.374;10.662;2023-07-24T01:16:37;1.65;;;1.65;;
72676;SDS011;60755;51.374;10.662;2023-07-24T01:19:12;2.30;;;2.10;;
72676;SDS011;60755;51.374;10.662;2023-07-24T01:21:45;1.65;;;1.63;;
72676;SDS011;60755;51.374;10.662;2023-07-24T01:24:29;2.15;;;1.75;;
72676;SDS011;60755;51.374;10.662;2023-07-24T01:27:02;1.92;;;1.83;;
72676;SDS011;60755;51.374;10.662;2023-07-24T01:29:29;2.83;;;2.10;;
72676;SDS011;60755;51.374;10.662;2023-07-24T01:31:56;5.95;;;1.83;;
72676;SDS011;60755;51.374;10.662;2023-07-24T01:34:23;1.80;;;1.80;;
72676;SDS011;60755;51.374;10.662;2023-07-24T01:36:50;2.38;;;1.85;;
72676;SDS011;60755;51.374;10.662;2023-07-24T01:39:19;3.70;;;2.63;;
72676;SDS011;60755;51.374;10.662;2023-07-24T01:41:47;1.85;;;1.83;;
72676;SDS011;60755;51.374;10.662;2023-07-24T01:44:15;2.17;;;2.08;;
72676;SDS011;60755;51.374;10.662;2023-07-24T01:46:42;2.08;;;1.98;;
72676;SDS011;60755;51.374;10.662;2023-07-24T01:49:10;2.13;;;2.00;;
72676;SDS011;60755;51.374;10.662;2023-07-24T01:51:37;2.10;;;2.00;;
72676;SDS011;60755;51.374;10.662;2023-07-24T01:54:04;3.75;;;1.75;;
72676;SDS011;60755;51.374;10.662;2023-07-24T01:56:31;3.03;;;1.98;;
72676;SDS011;60755;51.374;10.662;2023-07-24T01:58:58;1.73;;;1.73;;
72676;SDS011;60755;51.374;10.662;2023-07-24T02:01:26;1.98;;;1.88;;
72676;SDS011;60755;51.374;10.662;2023-07-24T02:03:53;2.00;;;1.90;;
72676;SDS011;60755;51.374;10.662;2023-07-24T02:06:20;3.60;;;2.08;;
72676;SDS011;60755;51.374;10.662;2023-07-24T02:08:47;2.00;;;1.90;;
72676;SDS011;60755;51.374;10.662;2023-07-24T02:11:16;1.85;;;1.75;;
72676;SDS011;60755;51.374;10.662;2023-07-24T02:13:44;1.90;;;1.90;;
72676;SDS011;60755;51.374;10.662;2023-07-24T02:16:11;1.92;;;1.83;;
72676;SDS011;60755;51.374;10.662;2023-07-24T02:18:40;2.13;;;1.98;;
72676;SDS011;60755;51.374;10.662;2023-07-24T02:21:08;2.05;;;1.95;;
72676;SDS011;60755;51.374;10.662;2023-07-24T02:23:36;2.00;;;1.90;;
72676;SDS011;60755;51.374;10.662;2023-07-24T02:26:04;2.05;;;1.90;;
72676;SDS011;60755;51.374;10.662;2023-07-24T02:28:33;1.88;;;1.77;;
72676;SDS011;60755;51.374;10.662;2023-07-24T02:31:00;2.20;;;2.10;;
72676;SDS011;60755;51.374;10.662;2023-07-24T02:33:28;1.95;;;1.83;;
72676;SDS011;60755;51.374;10.662;2023-07-24T02:35:56;1.70;;;1.70;;
72676;SDS011;60755;51.374;10.662;2023-07-24T02:38:23;1.80;;;1.80;;
72676;SDS011;60755;51.374;10.662;2023-07-24T02:40:50;3.13;;;1.98;;
72676;SDS011;60755;51.374;10.662;2023-07-24T02:43:17;2.53;;;1.85;;
72676;SDS011;60755;51.374;10.662;2023-07-24T02:45:44;2.10;;;2.00;;
72676;SDS011;60755;51.374;10.662;2023-07-24T02:48:11;1.90;;;1.80;;
72676;SDS011;60755;51.374;10.662;2023-07-24T02:50:38;1.90;;;1.90;;
72676;SDS011;60755;51.374;10.662;2023-07-24T02:53:06;2.00;;;1.90;;
72676;SDS011;60755;51.374;10.662;2023-07-24T02:55:33;2.25;;;2.15;;
72676;SDS011;60755;51.374;10.662;2023-07-24T02:58:00;2.63;;;2.42;;
72676;SDS011;60755;51.374;10.662;2023-07-24T03:00:28;1.80;;;1.70;;
72676;SDS011;60755;51.374;10.662;2023-07-24T03:02:55;1.73;;;1.73;;
72676;SDS011;60755;51.374;10.662;2023-07-24T03:05:22;1.85;;;1.75;;
72676;SDS011;60755;51.374;10.662;2023-07-24T03:07:49;1.65;;;1.65;;
72676;SDS011;60755;51.374;10.662;2023-07-24T03:10:17;2.10;;;2.00;;
72676;SDS011;60755;51.374;10.662;2023-07-24T03:12:45;1.85;;;1.85;;
72676;SDS011;60755;51.374;10.662;2023-07-24T03:15:12;2.83;;;2.10;;
72676;SDS011;60755;51.374;10.662;2023-07-24T03:17:39;2.40;;;2.30;;
72676;SDS011;60755;51.374;10.662;2023-07-24T03:20:09;2.10;;;2.00;;
72676;SDS011;60755;51.374;10.662;2023-07-24T03:22:40;2.17;;;2.08;;
72676;SDS011;60755;51.374;10.662;2023-07-24T03:25:08;2.50;;;2.20;;
72676;SDS011;60755;51.374;10.662;2023-07-24T03:27:36;2.47;;;2.28;;
72676;SDS011;60755;51.374;10.662;2023-07-24T03:30:04;2.42;;;2.08;;
72676;SDS011;60755;51.374;10.662;2023-07-24T03:32:32;2.00;;;1.90;;
72676;SDS011;60755;51.374;10.662;2023-07-24T03:34:59;2.20;;;2.10;;
72676;SDS011;60755;51.374;10.662;2023-07-24T03:37:26;2.75;;;2.10;;
72676;SDS011;60755;51.374;10.662;2023-07-24T03:39:53;3.67;;;2.60;;
72676;SDS011;60755;51.374;10.662;2023-07-24T03:42:26;2.00;;;1.90;;
72676;SDS011;60755;51.374;10.662;2023-07-24T03:44:56;2.10;;;2.03;;
72676;SDS011;60755;51.374;10.662;2023-07-24T03:47:24;4.43;;;2.05;;
72676;SDS011;60755;51.374;10.662;2023-07-24T03:49:51;2.45;;;2.28;;
72676;SDS011;60755;51.374;10.662;2023-07-24T03:52:18;1.85;;;1.85;;
72676;SDS011;60755;51.374;10.662;2023-07-24T03:54:45;2.10;;;2.00;;
72676;SDS011;60755;51.374;10.662;2023-07-24T03:57:12;1.70;;;1.70;;
72676;SDS011;60755;51.374;10.662;2023-07-24T03:59:39;2.20;;;2.10;;
72676;SDS011;60755;51.374;10.662;2023-07-24T04:02:07;2.45;;;2.05;;
72676;SDS011;60755;51.374;10.662;2023-07-24T04:04:34;1.92;;;1.92;;
72676;SDS011;60755;51.374;10.662;2023-07-24T04:07:02;1.80;;;1.80;;
72676;SDS011;60755;51.374;10.662;2023-07-24T04:09:29;2.28;;;2.10;;
72676;SDS011;60755;51.374;10.662;2023-07-24T04:11:55;2.30;;;2.10;;
72676;SDS011;60755;51.374;10.662;2023-07-24T04:14:22;2.30;;;2.00;;
72676;SDS011;60755;51.374;10.662;2023-07-24T04:16:49;2.00;;;1.90;;
72676;SDS011;60755;51.374;10.662;2023-07-24T04:19:18;2.08;;;1.98;;
72676;SDS011;60755;51.374;10.662;2023-07-24T04:21:45;2.42;;;2.33;;
72676;SDS011;60755;51.374;10.662;2023-07-24T04:24:12;2.47;;;2.38;;
72676;SDS011;60755;51.374;10.662;2023-07-24T04:26:38;2.88;;;2.78;;
72676;SDS011;60755;51.374;10.662;2023-07-24T04:29:06;2.03;;;1.92;;
72676;SDS011;60755;51.374;10.662;2023-07-24T04:31:32;2.45;;;2.25;;
72676;SDS011;60755;51.374;10.662;2023-07-24T04:33:59;1.92;;;1.83;;
72676;SDS011;60755;51.374;10.662;2023-07-24T04:36:28;2.20;;;2.10;;
72676;SDS011;60755;51.374;10.662;2023-07-24T04:38:55;2.88;;;2.00;;
72676;SDS011;60755;51.374;10.662;2023-07-24T04:41:22;2.38;;;2.03;;
72676;SDS011;60755;51.374;10.662;2023-07-24T04:43:49;2.20;;;2.00;;
72676;SDS011;60755;51.374;10.662;2023-07-24T04:46:16;2.00;;;1.90;;
72676;SDS011;60755;51.374;10.662;2023-07-24T04:48:42;1.95;;;1.95;;
72676;SDS011;60755;51.374;10.662;2023-07-24T04:51:09;35.35;;;23.80;;
72676;SDS011;60755;51.374;10.662;2023-07-24T04:53:38;22.23;;;16.42;;
72676;SDS011;60755;51.374;10.662;2023-07-24T04:56:05;12.05;;;9.82;;
72676;SDS011;60755;51.374;10.662;2023-07-24T04:58:32;9.75;;;7.25;;
72676;SDS011;60755;51.374;10.662;2023-07-24T05:01:02;12.40;;;8.82;;
72676;SDS011;60755;51.374;10.662;2023-07-24T05:03:30;11.35;;;7.60;;
72676;SDS011;60755;51.374;10.662;2023-07-24T05:05:57;5.32;;;4.82;;
72676;SDS011;60755;51.374;10.662;2023-07-24T05:08:24;5.18;;;4.75;;
72676;SDS011;60755;51.374;10.662;2023-07-24T05:10:55;5.00;;;4.53;;
72676;SDS011;60755;51.374;10.662;2023-07-24T05:13:24;3.53;;;3.22;;
72676;SDS011;60755;51.374;10.662;2023-07-24T05:15:51;2.67;;;2.47;;
72676;SDS011;60755;51.374;10.662;2023-07-24T05:18:18;2.55;;;2.35;;
72676;SDS011;60755;51.374;10.662;2023-07-24T05:20:45;2.50;;;2.40;;
72676;SDS011;60755;51.374;10.662;2023-07-24T05:23:12;2.38;;;2.28;;
72676;SDS011;60755;51.374;10.662;2023-07-24T05:25:39;2.38;;;2.10;;
72676;SDS011;60755;51.374;10.662;2023-07-24T05:28:08;2.60;;;2.17;;
72676;SDS011;60755;51.374;10.662;2023-07-24T05:30:35;3.97;;;2.58;;
72676;SDS011;60755;51.374;10.662;2023-07-24T05:33:02;2.20;;;2.10;;
72676;SDS011;60755;51.374;10.662;2023-07-24T05:35:29;2.00;;;2.00;;
72676;SDS011;60755;51.374;10.662;2023-07-24T05:37:56;2.13;;;2.03;;
72676;SDS011;60755;51.374;10.662;2023-07-24T05:40:23;2.30;;;2.20;;
72676;SDS011;60755;51.374;10.662;2023-07-24T05:42:50;2.00;;;1.90;;
72676;SDS011;60755;51.374;10.662;2023-07-24T05:45:18;2.22;;;2.13;;
72676;SDS011;60755;51.374;10.662;2023-07-24T05:47:45;2.20;;;2.10;;
72676;SDS011;60755;51.374;10.662;2023-07-24T05:50:12;2.88;;;2.10;;
72676;SDS011;60755;51.374;10.662;2023-07-24T05:52:39;1.92;;;1.92;;
72676;SDS011;60755;51.374;10.662;2023-07-24T05:55:07;2.30;;;2.20;;
72676;SDS011;60755;51.374;10.662;2023-07-24T05:57:34;2.55;;;2.45;;
72676;SDS011;60755;51.374;10.662;2023-07-24T06:00:03;2.47;;;2.38;;
72676;SDS011;60755;51.374;10.662;2023-07-24T06:02:38;2.20;;;2.10;;
72676;SDS011;60755;51.374;10.662;2023-07-24T06:05:05;2.55;;;2.45;;
72676;SDS011;60755;51.374;10.662;2023-07-24T06:07:32;3.50;;;2.22;;
72676;SDS011;60755;51.374;10.662;2023-07-24T06:09:59;3.55;;;2.33;;
72676;SDS011;60755;51.374;10.662;2023-07-24T06:12:26;2.80;;;2.10;;
72676;SDS011;60755;51.374;10.662;2023-07-24T06:14:53;2.90;;;2.30;;
72676;SDS011;60755;51.374;10.662;2023-07-24T06:17:20;2.45;;;2.35;;
72676;SDS011;60755;51.374;10.662;2023-07-24T06:19:48;2.30;;;2.20;;
72676;SDS011;60755;51.374;10.662;2023-07-24T06:22:15;2.88;;;2.67;;
72676;SDS011;60755;51.374;10.662;2023-07-24T06:24:42;2.50;;;2.40;;
72676;SDS011;60755;51.374;10.662;2023-07-24T06:27:09;2.85;;;2.65;;
72676;SDS011;60755;51.374;10.662;2023-07-24T06:29:36;2.95;;;2.38;;
72676;SDS011;60755;51.374;10.662;2023-07-24T06:32:03;2.42;;;2.30;;
72676;SDS011;60755;51.374;10.662;2023-07-24T06:34:31;2.67;;;2.47;;
72676;SDS011;60755;51.374;10.662;2023-07-24T06:36:59;2.90;;;2.70;;
72676;SDS011;60755;51.374;10.662;2023-07-24T06:39:26;2.50;;;2.40;;
72676;SDS011;60755;51.374;10.662;2023-07-24T06:41:54;2.38;;;2.20;;
72676;SDS011;60755;51.374;10.662;2023-07-24T06:44:21;2.63;;;2.42;;
72676;SDS011;60755;51.374;10.662;2023-07-24T06:46:48;2.60;;;2.50;;
72676;SDS011;60755;51.374;10.662;2023-07-24T06:49:15;2.50;;;2.30;;
72676;SDS011;60755;51.374;10.662;2023-07-24T06:51:42;4.63;;;2.55;;
72676;SDS011;60755;51.374;10.662;2023-07-24T06:54:10;2.75;;;2.60;;
72676;SDS011;60755;51.374;10.662;2023-07-24T06:56:37;3.03;;;2.38;;
72676;SDS011;60755;51.374;10.662;2023-07-24T06:59:04;2.72;;;2.55;;
72676;SDS011;60755;51.374;10.662;2023-07-24T07:01:31;3.22;;;2.33;;
72676;SDS011;60755;51.374;10.662;2023-07-24T07:03:58;2.70;;;2.50;;
72676;SDS011;60755;51.374;10.662;2023-07-24T07:06:25;2.88;;;2.60;;
72676;SDS011;60755;51.374;10.662;2023-07-24T07:08:52;2.83;;;2.40;;
72676;SDS011;60755;51.374;10.662;2023-07-24T07:11:20;5.20;;;2.83;;
72676;SDS011;60755;51.374;10.662;2023-07-24T07:13:47;4.60;;;2.63;;
72676;SDS011;60755;51.374;10.662;2023-07-24T07:16:14;2.60;;;2.50;;
72676;SDS011;60755;51.374;10.662;2023-07-24T07:18:42;2.63;;;2.42;;
72676;SDS011;60755;51.374;10.662;2023-07-24T07:21:09;5.32;;;2.53;;
72676;SDS011;60755;51.374;10.662;2023-07-24T07:23:35;2.92;;;2.67;;
72676;SDS011;60755;51.374;10.662;2023-07-24T07:26:02;3.78;;;2.70;;
72676;SDS011;60755;51.374;10.662;2023-07-24T07:28:31;2.80;;;2.70;;
72676;SDS011;60755;51.374;10.662;2023-07-24T07:30:58;2.65;;;2.55;;
72676;SDS011;60755;51.374;10.662;2023-07-24T07:33:24;4.65;;;2.58;;
72676;SDS011;60755;51.374;10.662;2023-07-24T07:35:51;3.08;;;2.33;;
72676;SDS011;60755;51.374;10.662;2023-07-24T07:38:18;2.50;;;2.40;;
72676;SDS011;60755;51.374;10.662;2023-07-24T07:40:48;5.50;;;2.35;;
72676;SDS011;60755;51.374;10.662;2023-07-24T07:43:14;2.60;;;2.50;;
72676;SDS011;60755;51.374;10.662;2023-07-24T07:45:43;2.80;;;2.65;;
72676;SDS011;60755;51.374;10.662;2023-07-24T07:48:10;3.13;;;2.70;;
72676;SDS011;60755;51.374;10.662;2023-07-24T07:50:37;2.70;;;2.60;;
72676;SDS011;60755;51.374;10.662;2023-07-24T07:53:04;4.07;;;2.72;;
72676;SDS011;60755;51.374;10.662;2023-07-24T07:55:31;3.40;;;3.10;;
72676;SDS011;60755;51.374;10.662;2023-07-24T07:57:58;6.55;;;3.40;;
72676;SDS011;60755;51.374;10.662;2023-07-24T08:00:25;3.05;;;2.88;;
72676;SDS011;60755;51.374;10.662;2023-07-24T08:02:53;2.90;;;2.80;;
72676;SDS011;60755;51.374;10.662;2023-07-24T08:05:20;2.95;;;2.75;;
72676;SDS011;60755;51.374;10.662;2023-07-24T08:07:47;2.75;;;2.58;;
72676;SDS011;60755;51.374;10.662;2023-07-24T08:10:14;2.90;;;2.75;;
72676;SDS011;60755;51.374;10.662;2023-07-24T08:12:42;3.35;;;3.03;;
72676;SDS011;60755;51.374;10.662;2023-07-24T08:15:09;2.95;;;2.65;;
72676;SDS011;60755;51.374;10.662;2023-07-24T08:17:36;3.50;;;3.13;;
72676;SDS011;60755;51.374;10.662;2023-07-24T08:20:06;3.65;;;2.80;;
72676;SDS011;60755;51.374;10.662;2023-07-24T08:22:33;3.22;;;2.97;;
72676;SDS011;60755;51.374;10.662;2023-07-24T08:25:00;4.05;;;3.00;;
72676;SDS011;60755;51.374;10.662;2023-07-24T08:27:27;3.55;;;3.13;;
72676;SDS011;60755;51.374;10.662;2023-07-24T08:29:55;3.28;;;3.08;;
72676;SDS011;60755;51.374;10.662;2023-07-24T08:32:21;6.43;;;3.65;;
72676;SDS011;60755;51.374;10.662;2023-07-24T08:34:48;3.20;;;2.90;;
72676;SDS011;60755;51.374;10.662;2023-07-24T08:37:17;3.45;;;3.15;;
72676;SDS011;60755;51.374;10.662;2023-07-24T08:39:44;3.33;;;3.05;;
72676;SDS011;60755;51.374;10.662;2023-07-24T08:42:11;7.00;;;3.28;;
72676;SDS011;60755;51.374;10.662;2023-07-24T08:44:39;3.53;;;3.33;;
72676;SDS011;60755;51.374;10.662;2023-07-24T08:47:09;3.53;;;3.22;;
72676;SDS011;60755;51.374;10.662;2023-07-24T08:49:38;3.22;;;3.03;;
72676;SDS011;60755;51.374;10.662;2023-07-24T08:52:06;3.63;;;3.33;;
72676;SDS011;60755;51.374;10.662;2023-07-24T08:54:36;3.90;;;3.50;;
72676;SDS011;60755;51.374;10.662;2023-07-24T08:57:04;3.38;;;3.17;;
72676;SDS011;60755;51.374;10.662;2023-07-24T08:59:33;4.90;;;3.90;;
72676;SDS011;60755;51.374;10.662;2023-07-24T09:02:00;3.42;;;3.25;;
72676;SDS011;60755;51.374;10.662;2023-07-24T09:04:27;3.45;;;3.15;;
72676;SDS011;60755;51.374;10.662;2023-07-24T09:06:56;4.97;;;3.63;;
72676;SDS011;60755;51.374;10.662;2023-07-24T09:09:28;3.60;;;3.35;;
72676;SDS011;60755;51.374;10.662;2023-07-24T09:11:58;4.70;;;3.80;;
72676;SDS011;60755;51.374;10.662;2023-07-24T09:14:26;3.80;;;3.50;;
72676;SDS011;60755;51.374;10.662;2023-07-24T09:17:04;4.22;;;3.40;;
72676;SDS011;60755;51.374;10.662;2023-07-24T09:19:32;3.72;;;3.42;;
72676;SDS011;60755;51.374;10.662;2023-07-24T09:22:10;3.67;;;3.42;;
72676;SDS011;60755;51.374;10.662;2023-07-24T09:24:37;5.78;;;3.50;;
72676;SDS011;60755;51.374;10.662;2023-07-24T09:27:16;3.97;;;3.67;;
72676;SDS011;60755;51.374;10.662;2023-07-24T09:29:43;3.88;;;3.58;;
72676;SDS011;60755;51.374;10.662;2023-07-24T09:32:18;3.72;;;3.22;;
72676;SDS011;60755;51.374;10.662;2023-07-24T09:34:46;4.97;;;3.38;;
72676;SDS011;60755;51.374;10.662;2023-07-24T09:37:22;3.78;;;3.47;;
72676;SDS011;60755;51.374;10.662;2023-07-24T09:39:50;3.65;;;3.45;;
72676;SDS011;60755;51.374;10.662;2023-07-24T09:42:26;4.30;;;3.90;;
72676;SDS011;60755;51.374;10.662;2023-07-24T09:44:54;4.00;;;3.70;;
72676;SDS011;60755;51.374;10.662;2023-07-24T09:47:21;4.35;;;3.50;;
72676;SDS011;60755;51.374;10.662;2023-07-24T09:49:48;3.63;;;3.33;;
72676;SDS011;60755;51.374;10.662;2023-07-24T09:52:15;3.70;;;3.40;;
72676;SDS011;60755;51.374;10.662;2023-07-24T09:54:46;3.78;;;3.58;;
72676;SDS011;60755;51.374;10.662;2023-07-24T09:57:22;3.72;;;3.47;;
72676;SDS011;60755;51.374;10.662;2023-07-24T09:59:50;3.95;;;3.65;;
72676;SDS011;60755;51.374;10.662;2023-07-24T10:02:19;4.90;;;3.78;;
72676;SDS011;60755;51.374;10.662;2023-07-24T10:04:46;3.97;;;3.67;;
72676;SDS011;60755;51.374;10.662;2023-07-24T10:07:14;4.25;;;3.80;;
72676;SDS011;60755;51.374;10.662;2023-07-24T10:09:42;4.05;;;3.75;;
72676;SDS011;60755;51.374;10.662;2023-07-24T10:12:09;3.92;;;3.65;;
72676;SDS011;60755;51.374;10.662;2023-07-24T10:14:38;4.20;;;3.80;;
72676;SDS011;60755;51.374;10.662;2023-07-24T10:17:05;3.63;;;3.33;;
72676;SDS011;60755;51.374;10.662;2023-07-24T10:19:35;4.32;;;3.78;;
72676;SDS011;60755;51.374;10.662;2023-07-24T10:22:04;4.80;;;3.92;;
72676;SDS011;60755;51.374;10.662;2023-07-24T10:24:32;4.20;;;3.90;;
72676;SDS011;60755;51.374;10.662;2023-07-24T10:26:59;4.13;;;3.83;;
72676;SDS011;60755;51.374;10.662;2023-07-24T10:29:33;4.43;;;4.03;;
72676;SDS011;60755;51.374;10.662;2023-07-24T10:32:02;5.07;;;4.07;;
72676;SDS011;60755;51.374;10.662;2023-07-24T10:34:36;4.43;;;4.03;;
72676;SDS011;60755;51.374;10.662;2023-07-24T10:37:06;4.93;;;3.92;;
72676;SDS011;60755;51.374;10.662;2023-07-24T10:39:38;4.95;;;3.50;;
72676;SDS011;60755;51.374;10.662;2023-07-24T10:42:06;4.55;;;3.90;;
72676;SDS011;60755;51.374;10.662;2023-07-24T10:44:35;3.67;;;3.47;;
72676;SDS011;60755;51.374;10.662;2023-07-24T10:47:04;4.40;;;3.90;;
72676;SDS011;60755;51.374;10.662;2023-07-24T10:49:31;4.10;;;3.70;;
72676;SDS011;60755;51.374;10.662;2023-07-24T10:51:58;3.90;;;3.60;;
72676;SDS011;60755;51.374;10.662;2023-07-24T10:54:25;4.05;;;3.75;;
72676;SDS011;60755;51.374;10.662;2023-07-24T10:56:57;4.57;;;4.03;;
72676;SDS011;60755;51.374;10.662;2023-07-24T10:59:35;4.50;;;4.10;;
72676;SDS011;60755;51.374;10.662;2023-07-24T11:02:04;4.22;;;3.83;;
72676;SDS011;60755;51.374;10.662;2023-07-24T11:04:31;6.07;;;4.07;;
72676;SDS011;60755;51.374;10.662;2023-07-24T11:06:59;4.72;;;4.28;;
72676;SDS011;60755;51.374;10.662;2023-07-24T11:09:34;3.75;;;3.50;;
72676;SDS011;60755;51.374;10.662;2023-07-24T11:12:08;4.25;;;3.85;;
72676;SDS011;60755;51.374;10.662;2023-07-24T11:14:45;3.67;;;3.47;;
72676;SDS011;60755;51.374;10.662;2023-07-24T11:17:14;5.00;;;3.78;;
72676;SDS011;60755;51.374;10.662;2023-07-24T11:19:41;4.35;;;4.05;;
72676;SDS011;60755;51.374;10.662;2023-07-24T11:22:08;4.00;;;3.70;;
72676;SDS011;60755;51.374;10.662;2023-07-24T11:24:41;3.90;;;3.47;;
72676;SDS011;60755;51.374;10.662;2023-07-24T11:27:10;3.80;;;3.50;;
72676;SDS011;60755;51.374;10.662;2023-07-24T11:29:39;3.85;;;3.50;;
72676;SDS011;60755;51.374;10.662;2023-07-24T11:32:06;3.78;;;3.58;;
72676;SDS011;60755;51.374;10.662;2023-07-24T11:34:34;4.10;;;3.80;;
72676;SDS011;60755;51.374;10.662;2023-07-24T11:37:02;6.30;;;3.90;;
72676;SDS011;60755;51.374;10.662;2023-07-24T11:39:30;3.63;;;3.38;;
72676;SDS011;60755;51.374;10.662;2023-07-24T11:41:58;3.85;;;3.55;;
72676;SDS011;60755;51.374;10.662;2023-07-24T11:44:27;8.07;;;3.88;;
72676;SDS011;60755;51.374;10.662;2023-07-24T11:47:01;4.25;;;3.72;;
72676;SDS011;60755;51.374;10.662;2023-07-24T11:49:29;4.35;;;3.92;;
72676;SDS011;60755;51.374;10.662;2023-07-24T11:52:02;5.10;;;4.60;;
72676;SDS011;60755;51.374;10.662;2023-07-24T11:54:30;4.68;;;4.28;;
72676;SDS011;60755;51.374;10.662;2023-07-24T11:56:57;7.57;;;3.95;;
72676;SDS011;60755;51.374;10.662;2023-07-24T11:59:24;6.13;;;4.13;;
72676;SDS011;60755;51.374;10.662;2023-07-24T12:01:52;6.28;;;4.28;;
72676;SDS011;60755;51.374;10.662;2023-07-24T12:04:19;5.68;;;3.60;;
72676;SDS011;60755;51.374;10.662;2023-07-24T12:06:46;4.78;;;4.10;;
72676;SDS011;60755;51.374;10.662;2023-07-24T12:09:15;4.43;;;4.03;;
72676;SDS011;60755;51.374;10.662;2023-07-24T12:11:42;4.95;;;4.10;;
72676;SDS011;60755;51.374;10.662;2023-07-24T12:14:10;4.38;;;3.97;;
72676;SDS011;60755;51.374;10.662;2023-07-24T12:16:38;4.30;;;4.00;;
72676;SDS011;60755;51.374;10.662;2023-07-24T12:19:05;4.68;;;4.18;;
72676;SDS011;60755;51.374;10.662;2023-07-24T12:21:32;4.15;;;3.85;;
72676;SDS011;60755;51.374;10.662;2023-07-24T12:23:59;4.15;;;3.80;;
72676;SDS011;60755;51.374;10.662;2023-07-24T12:26:27;3.58;;;3.38;;
72676;SDS011;60755;51.374;10.662;2023-07-24T12:28:54;4.03;;;3.75;;
72676;SDS011;60755;51.374;10.662;2023-07-24T12:31:21;4.00;;;3.70;;
72676;SDS011;60755;51.374;10.662;2023-07-24T12:33:48;4.03;;;3.72;;
72676;SDS011;60755;51.374;10.662;2023-07-24T12:36:15;4.22;;;3.92;;
72676;SDS011;60755;51.374;10.662;2023-07-24T12:38:42;4.10;;;3.78;;
72676;SDS011;60755;51.374;10.662;2023-07-24T12:41:09;3.95;;;3.65;;
72676;SDS011;60755;51.374;10.662;2023-07-24T12:43:37;4.40;;;4.00;;
72676;SDS011;60755;51.374;10.662;2023-07-24T12:46:04;4.55;;;4.13;;
72676;SDS011;60755;51.374;10.662;2023-07-24T12:48:31;3.88;;;3.67;;
72676;SDS011;60755;51.374;10.662;2023-07-24T12:50:58;4.32;;;3.92;;
72676;SDS011;60755;51.374;10.662;2023-07-24T12:53:26;4.18;;;3.97;;
72676;SDS011;60755;51.374;10.662;2023-07-24T12:55:53;5.25;;;4.07;;
72676;SDS011;60755;51.374;10.662;2023-07-24T12:58:20;4.30;;;4.03;;
72676;SDS011;60755;51.374;10.662;2023-07-24T13:00:49;4.35;;;3.97;;
72676;SDS011;60755;51.374;10.662;2023-07-24T13:03:17;5.07;;;4.05;;
72676;SDS011;60755;51.374;10.662;2023-07-24T13:05:44;4.10;;;3.80;;
72676;SDS011;60755;51.374;10.662;2023-07-24T13:08:11;4.68;;;4.20;;
72676;SDS011;60755;51.374;10.662;2023-07-24T13:10:39;5.60;;;4.00;;
72676;SDS011;60755;51.374;10.662;2023-07-24T13:13:06;5.85;;;4.28;;
72676;SDS011;60755;51.374;10.662;2023-07-24T13:15:34;4.82;;;4.35;;
72676;SDS011;60755;51.374;10.662;2023-07-24T13:18:03;7.05;;;4.43;;
72676;SDS011;60755;51.374;10.662;2023-07-24T13:20:30;5.00;;;4.22;;
72676;SDS011;60755;51.374;10.662;2023-07-24T13:22:58;4.80;;;4.28;;
72676;SDS011;60755;51.374;10.662;2023-07-24T13:25:25;5.65;;;4.75;;
72676;SDS011;60755;51.374;10.662;2023-07-24T13:27:52;4.50;;;4.20;;
72676;SDS011;60755;51.374;10.662;2023-07-24T13:30:19;4.82;;;4.43;;
72676;SDS011;60755;51.374;10.662;2023-07-24T13:32:46;4.40;;;4.00;;
72676;SDS011;60755;51.374;10.662;2023-07-24T13:35:15;5.10;;;4.60;;
72676;SDS011;60755;51.374;10.662;2023-07-24T13:37:42;5.65;;;5.15;;
72676;SDS011;60755;51.374;10.662;2023-07-24T13:40:10;6.93;;;4.70;;
72676;SDS011;60755;51.374;10.662;2023-07-24T13:42:38;4.88;;;4.47;;
72676;SDS011;60755;51.374;10.662;2023-07-24T13:45:05;5.32;;;4.20;;
72676;SDS011;60755;51.374;10.662;2023-07-24T13:47:34;4.97;;;4.47;;
72676;SDS011;60755;51.374;10.662;2023-07-24T13:50:01;5.13;;;4.40;;
72676;SDS011;60755;51.374;10.662;2023-07-24T13:52:30;5.05;;;4.65;;
72676;SDS011;60755;51.374;10.662;2023-07-24T13:54:57;4.78;;;4.38;;
72676;SDS011;60755;51.374;10.662;2023-07-24T13:57:24;6.40;;;4.93;;
72676;SDS011;60755;51.374;10.662;2023-07-24T13:59:52;5.55;;;4.78;;
72676;SDS011;60755;51.374;10.662;2023-07-24T14:02:19;5.20;;;4.80;;
72676;SDS011;60755;51.374;10.662;2023-07-24T14:04:46;5.18;;;4.72;;
72676;SDS011;60755;51.374;10.662;2023-07-24T14:07:13;5.65;;;4.90;;
72676;SDS011;60755;51.374;10.662;2023-07-24T14:09:42;4.68;;;4.32;;
72676;SDS011;60755;51.374;10.662;2023-07-24T14:12:09;5.95;;;4.68;;
72676;SDS011;60755;51.374;10.662;2023-07-24T14:14:36;5.55;;;5.10;;
72676;SDS011;60755;51.374;10.662;2023-07-24T14:17:04;7.65;;;5.38;;
72676;SDS011;60755;51.374;10.662;2023-07-24T14:19:31;5.55;;;5.05;;
72676;SDS011;60755;51.374;10.662;2023-07-24T14:21:58;5.07;;;4.55;;
72676;SDS011;60755;51.374;10.662;2023-07-24T14:24:27;5.78;;;5.18;;
72676;SDS011;60755;51.374;10.662;2023-07-24T14:26:55;5.65;;;5.05;;
72676;SDS011;60755;51.374;10.662;2023-07-24T14:29:23;8.13;;;5.30;;
72676;SDS011;60755;51.374;10.662;2023-07-24T14:31:50;6.78;;;4.82;;
72676;SDS011;60755;51.374;10.662;2023-07-24T14:34:17;5.88;;;4.82;;
72676;SDS011;60755;51.374;10.662;2023-07-24T14:36:44;6.40;;;5.03;;